Welcome to Trans World Virtual Airlines!

Welcome TWVA's Newest Pilot:

TWA2313 Bryan Heald

Not a Trans World pilot yet?
Apply Now!




Sign-in with your pilot id or email, or register

Flight TWA291-A

  • Submitted By: Austin Hill
  • Departure Airport: Lambert-Saint Louis International Airport (KSTL)
  • Arrival Airport: Will Rogers World Airport (KOKC)
  • Aircraft: MD-83 (N44266TW)
  • Flight Time: 01.48
  • Date Submitted: 04/15/2018
  • Route: STL J8 SGF J98 TUL J98 TIK J98 KOKC
  • Status: Accepted
Flight Details
Gross Revenue:
(123 load / $ 195.00 per unit
$ 23, 985.00
Fuel Cost:
(14059 fuel used @ 0.8 / unit)
$ 11, 247.20

Additional Log Information:

View Log

FS[16:11] Aircraft Title - MD_83 Paint4
FS[16:11] Aircraft Model - MD83
FS[16:11] Flight Number TWA291-A
FS[16:11] Departure KSTL
FS[16:11] Destination KOKC
FS[16:11] Boarding
FS[16:22] Pushing Back
FS[16:25] Taxiing to Runway
FS[16:32] Taking Off
FS[16:33] Taking Off
FS[16:33] 177kts
FS[16:33] pitch angle 9 degrees
FS[16:33] 27431 (lbs) of fuel onboard
FS[16:33] Climbing
FS[16:48] TOC Reached
FS[16:48] Cruise 32000
FS[17:23] TOD Reached
FS[17:23] Descending
FS[17:39] On Approach
FS[17:44] Landing Rate -30fpm
FS[17:44] 15589 (lbs) of fuel onboard
FS[17:44] pitch angle 6 degrees
FS[17:45] Taxiing to Gate
FS[17:53] Arrived
FS[17:59] Max Sim Rate: 1x
FS[17:59] kACARS_Free Version 1.0.1.1

Comments

Commenter Comment
Austin Hill KSTL 151612Z 28019KT 10SM OVC017 06/02 A2982 // KOKC 151726Z 33617KT 10SM CLR 13/M14 A3013

Route Map